Terminal Aerodrome Forecast
Issued by NWS Denver/Boulder, CO

Home | Current Version | Previous Version | Graphics & Text | Print | Product List | Glossary On
Versions: 1 2 3 4 5 6 7 8 9 10 11 12 13 14 15 16 17 18 19 20 21 22 23 24 25 26 27 28 29 30 31 32 33 34 35 36 37 38 39 40 41 42 43 44 45 46 47 48 49 50
000
FTUS45 KBOU 241507 AAA
TAFDEN
TAF AMD
KDEN 241507Z 2415/2518 16005KT P6SM FEW090 BKN140
     FM241700 12010KT P6SM FEW090 SCT140 BKN200
     FM242100 10008KT P6SM SCT090 BKN120
      TEMPO 2422/2502 VRB20G30KT -TSRA BKN080CB
     FM250300 15012KT P6SM FEW090 BKN140
     FM250800 18010KT P6SM SCT140 BKN200
     FM251400 15006KT P6SM SCT140 SCT200=

USA.gov is the U.S. government's official web portal to all federal, state and local government web resources and services.